Argyle, Georgia
Current Conditions -  °F | °C
As of 12:55 AM on Sunday 23 Nov 2014 (Local Time) from KHOE Reporting Station
Moderate Rain Moderate Rain  
Wind Chill: 16°   Ceiling: 2800
Heat Index: 16°   Visibility: 5mi
Dew Point: 16°   Wind: 5mph
Humidity: 100%   Direction: 80°E
Pressure: 30.1"   Gusts: NA
Location:  31.07°N, 82.65°W
Report Text: KHOE 230555Z AUTO 08004KT 5SM RA SCT003 SCT023 OVC028 16/16 A3010 RMK AO2
Loading
Personal Weather Stations






























Interactive Weather Map New forecast layout! Learn more

10-Day Weather Forecast

Advertisements
Track Severe Weather on mobile